This is the latest recevied weather packets stored in our database for station/object SV2RIM-2. If no packets are shown the sender has not sent any weather packets the latest 1 day(s).
| Time | Temp. | Humidity | Pressure | Rain* | Wind** | Luminosity | Snow |
|---|---|---|---|---|---|---|---|
| 1778049619 | 21.67° C | 43% | 1015.7 hPa | - | - | - | - |
| 1778049019 | 22.22° C | 41% | 1015.7 hPa | - | - | - | - |
| 1778048419 | 23.89° C | 36% | 1015.7 hPa | - | - | - | - |
| 1778047819 | 23.33° C | 36% | 1015.6 hPa | - | - | - | - |
| 1778047219 | 21.67° C | 39% | 1015.6 hPa | - | - | - | - |
| 1778046619 | 19.44° C | 43% | 1015.6 hPa | - | - | - | - |
| 1778046019 | 19.44° C | 43% | 1015.5 hPa | - | - | - | - |
| 1778045419 | 17.78° C | 46% | 1015.5 hPa | - | - | - | - |
| 1778044819 | 15° C | 53% | 1015.5 hPa | - | - | - | - |
| 1778044219 | 12.78° C | 59% | 1015.5 hPa | - | - | - | - |
| 1778043619 | 12.22° C | 60% | 1015.5 hPa | - | - | - | - |
| 1778043019 | 12.22° C | 60% | 1015.4 hPa | - | - | - | - |
| 1778042419 | 11.11° C | 62% | 1015.3 hPa | - | - | - | - |
| 1778041819 | 10.56° C | 64% | 1015.3 hPa | - | - | - | - |
| 1778041219 | 11.11° C | 62% | 1015.2 hPa | - | - | - | - |
| 1778040619 | 11.67° C | 60% | 1015.1 hPa | - | - | - | - |
| 1778040019 | 11.11° C | 61% | 1015.1 hPa | - | - | - | - |
| 1778039419 | 10.56° C | 62% | 1015.1 hPa | - | - | - | - |
| 1778038819 | 10.56° C | 63% | 1015 hPa | - | - | - | - |
| 1778038219 | 10.56° C | 62% | 1014.9 hPa | - | - | - | - |
| 1778037619 | 10.56° C | 61% | 1014.9 hPa | - | - | - | - |
| 1778037019 | 10.56° C | 61% | 1014.8 hPa | - | - | - | - |
| 1778036419 | 10.56° C | 61% | 1014.8 hPa | - | - | - | - |
| 1778035819 | 10.56° C | 61% | 1014.7 hPa | - | - | - | - |
| 1778035219 | 10.56° C | 61% | 1014.7 hPa | - | - | - | - |
* Rain since midnight (hover to see other rain measurements)
** Current wind speed in m/s (hover to see current wind gust speed)